sensor_id;sensor_type;location;lat;lon;timestamp;P1;durP1;ratioP1;P2;durP2;ratioP2
2860;SDS011;1438;50.922;6.704;2023-04-03T00:00:12;4.30;;;2.63;;
2860;SDS011;1438;50.922;6.704;2023-04-03T00:02:38;3.22;;;2.45;;
2860;SDS011;1438;50.922;6.704;2023-04-03T00:05:05;4.82;;;2.60;;
2860;SDS011;1438;50.922;6.704;2023-04-03T00:07:31;4.30;;;2.47;;
2860;SDS011;1438;50.922;6.704;2023-04-03T00:09:57;5.57;;;2.78;;
2860;SDS011;1438;50.922;6.704;2023-04-03T00:12:23;3.45;;;2.80;;
2860;SDS011;1438;50.922;6.704;2023-04-03T00:14:49;4.75;;;2.80;;
2860;SDS011;1438;50.922;6.704;2023-04-03T00:17:15;5.40;;;3.08;;
2860;SDS011;1438;50.922;6.704;2023-04-03T00:19:42;4.25;;;2.67;;
2860;SDS011;1438;50.922;6.704;2023-04-03T00:22:08;5.25;;;3.30;;
2860;SDS011;1438;50.922;6.704;2023-04-03T00:24:34;4.63;;;3.30;;
2860;SDS011;1438;50.922;6.704;2023-04-03T00:27:00;5.15;;;3.20;;
2860;SDS011;1438;50.922;6.704;2023-04-03T00:29:26;3.15;;;2.70;;
2860;SDS011;1438;50.922;6.704;2023-04-03T00:31:52;4.10;;;2.67;;
2860;SDS011;1438;50.922;6.704;2023-04-03T00:34:18;2.88;;;2.50;;
2860;SDS011;1438;50.922;6.704;2023-04-03T00:36:44;4.80;;;2.88;;
2860;SDS011;1438;50.922;6.704;2023-04-03T00:39:10;4.18;;;2.55;;
2860;SDS011;1438;50.922;6.704;2023-04-03T00:41:36;5.50;;;3.25;;
2860;SDS011;1438;50.922;6.704;2023-04-03T00:44:18;4.20;;;3.17;;
2860;SDS011;1438;50.922;6.704;2023-04-03T00:46:44;4.18;;;3.35;;
2860;SDS011;1438;50.922;6.704;2023-04-03T00:49:10;7.97;;;3.47;;
2860;SDS011;1438;50.922;6.704;2023-04-03T00:51:36;4.63;;;3.13;;
2860;SDS011;1438;50.922;6.704;2023-04-03T00:54:02;12.05;;;4.20;;
2860;SDS011;1438;50.922;6.704;2023-04-03T00:56:30;6.57;;;3.65;;
2860;SDS011;1438;50.922;6.704;2023-04-03T00:58:58;4.72;;;3.90;;
2860;SDS011;1438;50.922;6.704;2023-04-03T01:01:27;7.22;;;4.00;;
2860;SDS011;1438;50.922;6.704;2023-04-03T01:03:53;7.22;;;4.50;;
2860;SDS011;1438;50.922;6.704;2023-04-03T01:06:20;7.85;;;4.18;;
2860;SDS011;1438;50.922;6.704;2023-04-03T01:08:48;6.90;;;4.70;;
2860;SDS011;1438;50.922;6.704;2023-04-03T01:11:15;4.75;;;4.25;;
2860;SDS011;1438;50.922;6.704;2023-04-03T01:13:41;4.38;;;3.90;;
2860;SDS011;1438;50.922;6.704;2023-04-03T01:16:07;6.90;;;4.35;;
2860;SDS011;1438;50.922;6.704;2023-04-03T01:18:34;6.82;;;4.47;;
2860;SDS011;1438;50.922;6.704;2023-04-03T01:21:08;6.13;;;4.25;;
2860;SDS011;1438;50.922;6.704;2023-04-03T01:23:40;5.45;;;4.32;;
2860;SDS011;1438;50.922;6.704;2023-04-03T01:26:10;5.85;;;4.30;;
2860;SDS011;1438;50.922;6.704;2023-04-03T01:28:36;4.35;;;3.92;;
2860;SDS011;1438;50.922;6.704;2023-04-03T01:31:13;6.93;;;4.57;;
2860;SDS011;1438;50.922;6.704;2023-04-03T01:33:41;4.93;;;4.28;;
2860;SDS011;1438;50.922;6.704;2023-04-03T01:36:07;8.20;;;4.30;;
2860;SDS011;1438;50.922;6.704;2023-04-03T01:38:33;5.85;;;5.22;;
2860;SDS011;1438;50.922;6.704;2023-04-03T01:40:59;9.05;;;5.35;;
2860;SDS011;1438;50.922;6.704;2023-04-03T01:43:26;5.07;;;4.22;;
2860;SDS011;1438;50.922;6.704;2023-04-03T01:45:52;7.90;;;4.43;;
2860;SDS011;1438;50.922;6.704;2023-04-03T01:48:19;5.43;;;4.55;;
2860;SDS011;1438;50.922;6.704;2023-04-03T01:50:45;5.68;;;5.03;;
2860;SDS011;1438;50.922;6.704;2023-04-03T01:53:11;7.43;;;4.90;;
2860;SDS011;1438;50.922;6.704;2023-04-03T01:55:37;5.25;;;4.57;;
2860;SDS011;1438;50.922;6.704;2023-04-03T01:58:03;5.60;;;5.10;;
2860;SDS011;1438;50.922;6.704;2023-04-03T02:00:29;8.68;;;5.70;;
2860;SDS011;1438;50.922;6.704;2023-04-03T02:02:56;9.00;;;6.00;;
2860;SDS011;1438;50.922;6.704;2023-04-03T02:05:22;10.23;;;6.05;;
2860;SDS011;1438;50.922;6.704;2023-04-03T02:07:48;6.13;;;5.63;;
2860;SDS011;1438;50.922;6.704;2023-04-03T02:10:14;7.25;;;5.55;;
2860;SDS011;1438;50.922;6.704;2023-04-03T02:12:40;7.65;;;6.55;;
2860;SDS011;1438;50.922;6.704;2023-04-03T02:15:06;8.90;;;6.97;;
2860;SDS011;1438;50.922;6.704;2023-04-03T02:17:32;7.25;;;6.55;;
2860;SDS011;1438;50.922;6.704;2023-04-03T02:19:58;12.43;;;6.40;;
2860;SDS011;1438;50.922;6.704;2023-04-03T02:22:24;6.93;;;6.15;;
2860;SDS011;1438;50.922;6.704;2023-04-03T02:24:50;7.95;;;5.53;;
2860;SDS011;1438;50.922;6.704;2023-04-03T02:27:16;6.30;;;5.30;;
2860;SDS011;1438;50.922;6.704;2023-04-03T02:29:42;7.47;;;5.78;;
2860;SDS011;1438;50.922;6.704;2023-04-03T02:32:08;8.35;;;5.90;;
2860;SDS011;1438;50.922;6.704;2023-04-03T02:34:35;10.65;;;5.85;;
2860;SDS011;1438;50.922;6.704;2023-04-03T02:37:01;6.18;;;5.57;;
2860;SDS011;1438;50.922;6.704;2023-04-03T02:39:27;5.72;;;5.22;;
2860;SDS011;1438;50.922;6.704;2023-04-03T02:41:53;6.90;;;5.15;;
2860;SDS011;1438;50.922;6.704;2023-04-03T02:44:19;5.72;;;5.25;;
2860;SDS011;1438;50.922;6.704;2023-04-03T02:46:45;6.22;;;5.60;;
2860;SDS011;1438;50.922;6.704;2023-04-03T02:49:11;7.60;;;5.80;;
2860;SDS011;1438;50.922;6.704;2023-04-03T02:51:37;11.05;;;7.00;;
2860;SDS011;1438;50.922;6.704;2023-04-03T02:54:03;7.47;;;6.03;;
2860;SDS011;1438;50.922;6.704;2023-04-03T02:56:29;7.88;;;5.65;;
2860;SDS011;1438;50.922;6.704;2023-04-03T02:58:55;8.98;;;5.93;;
2860;SDS011;1438;50.922;6.704;2023-04-03T03:01:21;7.43;;;5.43;;
2860;SDS011;1438;50.922;6.704;2023-04-03T03:03:47;10.02;;;6.28;;
2860;SDS011;1438;50.922;6.704;2023-04-03T03:06:14;6.40;;;4.57;;
2860;SDS011;1438;50.922;6.704;2023-04-03T03:08:41;8.13;;;5.45;;
2860;SDS011;1438;50.922;6.704;2023-04-03T03:11:07;9.57;;;5.68;;
2860;SDS011;1438;50.922;6.704;2023-04-03T03:13:33;6.70;;;5.30;;
2860;SDS011;1438;50.922;6.704;2023-04-03T03:15:59;7.70;;;5.53;;
2860;SDS011;1438;50.922;6.704;2023-04-03T03:18:26;9.00;;;5.68;;
2860;SDS011;1438;50.922;6.704;2023-04-03T03:20:52;6.18;;;5.57;;
2860;SDS011;1438;50.922;6.704;2023-04-03T03:23:19;5.65;;;5.07;;
2860;SDS011;1438;50.922;6.704;2023-04-03T03:25:45;6.43;;;4.25;;
2860;SDS011;1438;50.922;6.704;2023-04-03T03:28:11;5.70;;;5.13;;
2860;SDS011;1438;50.922;6.704;2023-04-03T03:30:37;5.63;;;5.07;;
2860;SDS011;1438;50.922;6.704;2023-04-03T03:33:03;7.53;;;4.75;;
2860;SDS011;1438;50.922;6.704;2023-04-03T03:35:29;6.95;;;4.63;;
2860;SDS011;1438;50.922;6.704;2023-04-03T03:37:55;5.68;;;4.40;;
2860;SDS011;1438;50.922;6.704;2023-04-03T03:40:21;4.85;;;4.30;;
2860;SDS011;1438;50.922;6.704;2023-04-03T03:42:48;7.10;;;5.00;;
2860;SDS011;1438;50.922;6.704;2023-04-03T03:45:14;4.53;;;4.05;;
2860;SDS011;1438;50.922;6.704;2023-04-03T03:47:40;8.10;;;4.55;;
2860;SDS011;1438;50.922;6.704;2023-04-03T03:50:06;6.25;;;4.10;;
2860;SDS011;1438;50.922;6.704;2023-04-03T03:52:32;4.35;;;3.95;;
2860;SDS011;1438;50.922;6.704;2023-04-03T03:54:58;5.90;;;4.72;;
2860;SDS011;1438;50.922;6.704;2023-04-03T03:57:24;5.88;;;4.35;;
2860;SDS011;1438;50.922;6.704;2023-04-03T03:59:53;6.90;;;4.00;;
2860;SDS011;1438;50.922;6.704;2023-04-03T04:02:19;4.50;;;4.10;;
2860;SDS011;1438;50.922;6.704;2023-04-03T04:04:46;4.38;;;3.97;;
2860;SDS011;1438;50.922;6.704;2023-04-03T04:07:12;5.97;;;4.10;;
2860;SDS011;1438;50.922;6.704;2023-04-03T04:09:38;6.15;;;4.60;;
2860;SDS011;1438;50.922;6.704;2023-04-03T04:12:04;5.10;;;4.20;;
2860;SDS011;1438;50.922;6.704;2023-04-03T04:14:30;6.68;;;4.45;;
2860;SDS011;1438;50.922;6.704;2023-04-03T04:16:56;9.10;;;5.60;;
2860;SDS011;1438;50.922;6.704;2023-04-03T04:19:22;8.18;;;4.93;;
2860;SDS011;1438;50.922;6.704;2023-04-03T04:21:48;6.70;;;4.72;;
2860;SDS011;1438;50.922;6.704;2023-04-03T04:24:14;5.20;;;4.35;;
2860;SDS011;1438;50.922;6.704;2023-04-03T04:26:40;7.38;;;4.97;;
2860;SDS011;1438;50.922;6.704;2023-04-03T04:29:08;4.68;;;3.70;;
2860;SDS011;1438;50.922;6.704;2023-04-03T04:31:34;6.78;;;4.10;;
2860;SDS011;1438;50.922;6.704;2023-04-03T04:34:00;4.70;;;4.20;;
2860;SDS011;1438;50.922;6.704;2023-04-03T04:36:26;8.05;;;5.15;;
2860;SDS011;1438;50.922;6.704;2023-04-03T04:38:52;5.95;;;5.13;;
2860;SDS011;1438;50.922;6.704;2023-04-03T04:41:19;3.55;;;3.17;;
2860;SDS011;1438;50.922;6.704;2023-04-03T04:43:47;5.63;;;4.18;;
2860;SDS011;1438;50.922;6.704;2023-04-03T04:46:13;4.40;;;4.00;;
2860;SDS011;1438;50.922;6.704;2023-04-03T04:48:39;9.20;;;4.70;;
2860;SDS011;1438;50.922;6.704;2023-04-03T04:51:05;7.28;;;3.80;;
2860;SDS011;1438;50.922;6.704;2023-04-03T04:53:31;8.07;;;4.25;;
2860;SDS011;1438;50.922;6.704;2023-04-03T04:55:58;4.47;;;4.07;;
2860;SDS011;1438;50.922;6.704;2023-04-03T04:58:24;4.82;;;4.43;;
2860;SDS011;1438;50.922;6.704;2023-04-03T05:00:57;6.85;;;4.45;;
2860;SDS011;1438;50.922;6.704;2023-04-03T05:03:24;4.30;;;3.90;;
2860;SDS011;1438;50.922;6.704;2023-04-03T05:05:50;9.95;;;4.63;;
2860;SDS011;1438;50.922;6.704;2023-04-03T05:08:16;7.53;;;3.63;;
2860;SDS011;1438;50.922;6.704;2023-04-03T05:10:42;9.98;;;4.30;;
2860;SDS011;1438;50.922;6.704;2023-04-03T05:13:08;4.22;;;3.83;;
2860;SDS011;1438;50.922;6.704;2023-04-03T05:15:34;6.00;;;3.67;;
2860;SDS011;1438;50.922;6.704;2023-04-03T05:18:00;8.20;;;4.72;;
2860;SDS011;1438;50.922;6.704;2023-04-03T05:20:26;6.20;;;4.45;;
2860;SDS011;1438;50.922;6.704;2023-04-03T05:22:52;4.88;;;3.90;;
2860;SDS011;1438;50.922;6.704;2023-04-03T05:25:18;5.90;;;3.88;;
2860;SDS011;1438;50.922;6.704;2023-04-03T05:27:44;5.70;;;4.15;;
2860;SDS011;1438;50.922;6.704;2023-04-03T05:30:10;5.10;;;3.58;;
2860;SDS011;1438;50.922;6.704;2023-04-03T05:32:37;6.72;;;4.30;;
2860;SDS011;1438;50.922;6.704;2023-04-03T05:35:03;6.20;;;3.47;;
2860;SDS011;1438;50.922;6.704;2023-04-03T05:37:29;6.20;;;4.40;;
2860;SDS011;1438;50.922;6.704;2023-04-03T05:39:55;6.45;;;3.90;;
2860;SDS011;1438;50.922;6.704;2023-04-03T05:42:21;4.07;;;3.10;;
2860;SDS011;1438;50.922;6.704;2023-04-03T05:44:47;4.10;;;3.00;;
2860;SDS011;1438;50.922;6.704;2023-04-03T05:47:15;10.05;;;4.63;;
2860;SDS011;1438;50.922;6.704;2023-04-03T05:49:41;3.35;;;3.03;;
2860;SDS011;1438;50.922;6.704;2023-04-03T05:52:26;6.28;;;2.65;;
2860;SDS011;1438;50.922;6.704;2023-04-03T05:54:53;7.13;;;3.72;;
2860;SDS011;1438;50.922;6.704;2023-04-03T05:57:19;8.18;;;4.25;;
2860;SDS011;1438;50.922;6.704;2023-04-03T05:59:46;3.80;;;3.42;;
2860;SDS011;1438;50.922;6.704;2023-04-03T06:02:13;4.97;;;3.00;;
2860;SDS011;1438;50.922;6.704;2023-04-03T06:04:39;5.65;;;2.83;;
2860;SDS011;1438;50.922;6.704;2023-04-03T06:07:05;4.55;;;2.45;;
2860;SDS011;1438;50.922;6.704;2023-04-03T06:09:32;3.03;;;2.75;;
2860;SDS011;1438;50.922;6.704;2023-04-03T06:11:58;3.58;;;2.65;;
2860;SDS011;1438;50.922;6.704;2023-04-03T06:14:25;4.32;;;2.65;;
2860;SDS011;1438;50.922;6.704;2023-04-03T06:16:51;2.85;;;2.47;;
2860;SDS011;1438;50.922;6.704;2023-04-03T06:19:18;5.15;;;2.95;;
2860;SDS011;1438;50.922;6.704;2023-04-03T06:21:45;5.72;;;2.08;;
2860;SDS011;1438;50.922;6.704;2023-04-03T06:24:12;6.20;;;2.45;;
2860;SDS011;1438;50.922;6.704;2023-04-03T06:26:40;3.70;;;2.63;;
2860;SDS011;1438;50.922;6.704;2023-04-03T06:29:06;6.30;;;2.58;;
2860;SDS011;1438;50.922;6.704;2023-04-03T06:31:32;3.33;;;2.55;;
2860;SDS011;1438;50.922;6.704;2023-04-03T06:33:58;5.40;;;2.38;;
2860;SDS011;1438;50.922;6.704;2023-04-03T06:36:24;3.65;;;2.53;;
2860;SDS011;1438;50.922;6.704;2023-04-03T06:38:50;2.22;;;2.03;;
2860;SDS011;1438;50.922;6.704;2023-04-03T06:41:16;4.85;;;3.17;;
2860;SDS011;1438;50.922;6.704;2023-04-03T06:43:43;3.72;;;2.35;;
2860;SDS011;1438;50.922;6.704;2023-04-03T06:46:16;9.18;;;3.13;;
2860;SDS011;1438;50.922;6.704;2023-04-03T06:48:42;3.80;;;2.25;;
2860;SDS011;1438;50.922;6.704;2023-04-03T06:51:19;3.38;;;2.58;;
2860;SDS011;1438;50.922;6.704;2023-04-03T06:53:49;3.85;;;2.47;;
2860;SDS011;1438;50.922;6.704;2023-04-03T06:56:16;2.90;;;2.05;;
2860;SDS011;1438;50.922;6.704;2023-04-03T06:58:42;3.10;;;1.80;;
2860;SDS011;1438;50.922;6.704;2023-04-03T07:01:09;3.45;;;2.75;;
2860;SDS011;1438;50.922;6.704;2023-04-03T07:03:36;3.90;;;2.38;;
2860;SDS011;1438;50.922;6.704;2023-04-03T07:06:02;4.03;;;2.55;;
2860;SDS011;1438;50.922;6.704;2023-04-03T07:08:28;5.55;;;2.13;;
2860;SDS011;1438;50.922;6.704;2023-04-03T07:10:55;5.22;;;2.13;;
2860;SDS011;1438;50.922;6.704;2023-04-03T07:13:21;5.95;;;2.58;;
2860;SDS011;1438;50.922;6.704;2023-04-03T07:15:47;4.13;;;2.50;;
2860;SDS011;1438;50.922;6.704;2023-04-03T07:18:15;6.47;;;2.83;;
2860;SDS011;1438;50.922;6.704;2023-04-03T07:20:41;3.47;;;2.30;;
2860;SDS011;1438;50.922;6.704;2023-04-03T07:23:08;4.40;;;2.30;;
2860;SDS011;1438;50.922;6.704;2023-04-03T07:25:34;3.10;;;2.35;;
2860;SDS011;1438;50.922;6.704;2023-04-03T07:28:00;4.20;;;2.50;;
2860;SDS011;1438;50.922;6.704;2023-04-03T07:30:26;3.83;;;2.50;;
2860;SDS011;1438;50.922;6.704;2023-04-03T07:32:52;4.30;;;2.25;;
2860;SDS011;1438;50.922;6.704;2023-04-03T07:35:18;3.00;;;2.30;;
2860;SDS011;1438;50.922;6.704;2023-04-03T07:37:44;6.25;;;2.58;;
2860;SDS011;1438;50.922;6.704;2023-04-03T07:40:11;2.83;;;2.38;;
2860;SDS011;1438;50.922;6.704;2023-04-03T07:42:37;6.80;;;2.33;;
2860;SDS011;1438;50.922;6.704;2023-04-03T07:45:03;4.00;;;2.22;;
2860;SDS011;1438;50.922;6.704;2023-04-03T07:47:29;3.45;;;1.80;;
2860;SDS011;1438;50.922;6.704;2023-04-03T07:49:56;5.95;;;2.58;;
2860;SDS011;1438;50.922;6.704;2023-04-03T07:52:23;3.28;;;1.75;;
2860;SDS011;1438;50.922;6.704;2023-04-03T07:54:49;3.13;;;1.88;;
2860;SDS011;1438;50.922;6.704;2023-04-03T07:57:15;1.85;;;1.55;;
2860;SDS011;1438;50.922;6.704;2023-04-03T07:59:41;3.05;;;2.50;;
2860;SDS011;1438;50.922;6.704;2023-04-03T08:02:11;4.00;;;2.13;;
2860;SDS011;1438;50.922;6.704;2023-04-03T08:04:37;6.80;;;2.40;;
2860;SDS011;1438;50.922;6.704;2023-04-03T08:07:03;4.63;;;1.50;;
2860;SDS011;1438;50.922;6.704;2023-04-03T08:09:29;14.00;;;1.85;;
2860;SDS011;1438;50.922;6.704;2023-04-03T08:11:56;4.00;;;1.60;;
2860;SDS011;1438;50.922;6.704;2023-04-03T08:14:22;3.35;;;1.50;;
2860;SDS011;1438;50.922;6.704;2023-04-03T08:16:48;2.75;;;1.70;;
2860;SDS011;1438;50.922;6.704;2023-04-03T08:19:14;3.15;;;1.70;;
2860;SDS011;1438;50.922;6.704;2023-04-03T08:21:42;3.53;;;1.70;;
2860;SDS011;1438;50.922;6.704;2023-04-03T08:24:09;4.10;;;1.90;;
2860;SDS011;1438;50.922;6.704;2023-04-03T08:26:35;4.32;;;2.25;;
2860;SDS011;1438;50.922;6.704;2023-04-03T08:29:01;3.30;;;2.13;;
2860;SDS011;1438;50.922;6.704;2023-04-03T08:31:27;6.63;;;2.00;;
2860;SDS011;1438;50.922;6.704;2023-04-03T08:33:53;3.10;;;1.70;;
2860;SDS011;1438;50.922;6.704;2023-04-03T08:36:21;2.00;;;1.23;;
2860;SDS011;1438;50.922;6.704;2023-04-03T08:38:48;2.55;;;1.70;;
2860;SDS011;1438;50.922;6.704;2023-04-03T08:41:16;2.35;;;1.35;;
2860;SDS011;1438;50.922;6.704;2023-04-03T08:43:56;1.98;;;1.35;;
2860;SDS011;1438;50.922;6.704;2023-04-03T08:46:25;3.70;;;1.92;;
2860;SDS011;1438;50.922;6.704;2023-04-03T08:48:52;2.47;;;1.27;;
2860;SDS011;1438;50.922;6.704;2023-04-03T08:51:19;5.68;;;1.50;;
2860;SDS011;1438;50.922;6.704;2023-04-03T08:54:04;1.90;;;1.45;;
2860;SDS011;1438;50.922;6.704;2023-04-03T08:56:34;3.05;;;2.45;;
2860;SDS011;1438;50.922;6.704;2023-04-03T08:59:03;3.83;;;1.50;;
2860;SDS011;1438;50.922;6.704;2023-04-03T09:01:34;5.63;;;1.83;;
2860;SDS011;1438;50.922;6.704;2023-04-03T09:04:02;2.63;;;1.47;;
2860;SDS011;1438;50.922;6.704;2023-04-03T09:06:29;1.87;;;1.20;;
2860;SDS011;1438;50.922;6.704;2023-04-03T09:14:08;6.20;;;1.80;;
2860;SDS011;1438;50.922;6.704;2023-04-03T09:16:43;3.10;;;1.63;;
2860;SDS011;1438;50.922;6.704;2023-04-03T09:21:39;4.50;;;1.50;;
2860;SDS011;1438;50.922;6.704;2023-04-03T09:24:07;2.63;;;1.43;;
2860;SDS011;1438;50.922;6.704;2023-04-03T09:29:05;2.40;;;1.17;;
2860;SDS011;1438;50.922;6.704;2023-04-03T09:31:36;3.63;;;1.50;;
2860;SDS011;1438;50.922;6.704;2023-04-03T09:34:05;2.90;;;1.43;;
2860;SDS011;1438;50.922;6.704;2023-04-03T09:36:45;2.57;;;1.30;;
2860;SDS011;1438;50.922;6.704;2023-04-03T09:39:13;1.93;;;1.07;;
2860;SDS011;1438;50.922;6.704;2023-04-03T09:41:40;2.50;;;1.47;;
2860;SDS011;1438;50.922;6.704;2023-04-03T09:44:39;2.97;;;1.20;;
2860;SDS011;1438;50.922;6.704;2023-04-03T09:46:58;2.50;;;1.40;;
2860;SDS011;1438;50.922;6.704;2023-04-03T09:49:25;2.27;;;1.20;;
2860;SDS011;1438;50.922;6.704;2023-04-03T09:51:51;3.03;;;1.50;;
2860;SDS011;1438;50.922;6.704;2023-04-03T09:54:32;2.00;;;1.10;;
2860;SDS011;1438;50.922;6.704;2023-04-03T09:57:05;2.53;;;1.00;;
2860;SDS011;1438;50.922;6.704;2023-04-03T09:59:32;1.43;;;0.90;;
2860;SDS011;1438;50.922;6.704;2023-04-03T10:02:00;2.27;;;1.00;;
2860;SDS011;1438;50.922;6.704;2023-04-03T10:04:36;2.00;;;1.20;;
2860;SDS011;1438;50.922;6.704;2023-04-03T10:07:03;3.97;;;1.27;;
2860;SDS011;1438;50.922;6.704;2023-04-03T10:09:30;2.37;;;1.23;;
2860;SDS011;1438;50.922;6.704;2023-04-03T10:12:09;1.40;;;1.20;;
2860;SDS011;1438;50.922;6.704;2023-04-03T10:14:40;2.50;;;1.23;;
2860;SDS011;1438;50.922;6.704;2023-04-03T10:25:16;3.03;;;1.30;;
2860;SDS011;1438;50.922;6.704;2023-04-03T10:28:01;9.23;;;1.30;;
2860;SDS011;1438;50.922;6.704;2023-04-03T10:33:36;2.63;;;1.27;;
2860;SDS011;1438;50.922;6.704;2023-04-03T10:38:30;1.90;;;1.00;;
2860;SDS011;1438;50.922;6.704;2023-04-03T10:41:05;2.73;;;0.87;;
2860;SDS011;1438;50.922;6.704;2023-04-03T10:46:04;3.40;;;1.17;;
2860;SDS011;1438;50.922;6.704;2023-04-03T10:48:34;1.73;;;0.93;;
2860;SDS011;1438;50.922;6.704;2023-04-03T10:54:00;3.83;;;1.63;;
2860;SDS011;1438;50.922;6.704;2023-04-03T10:59:13;2.83;;;1.40;;
2860;SDS011;1438;50.922;6.704;2023-04-03T11:01:43;2.80;;;1.03;;
2860;SDS011;1438;50.922;6.704;2023-04-03T11:04:10;2.87;;;1.30;;
2860;SDS011;1438;50.922;6.704;2023-04-03T11:06:39;1.63;;;1.13;;
2860;SDS011;1438;50.922;6.704;2023-04-03T11:09:50;1.20;;;1.10;;
2860;SDS011;1438;50.922;6.704;2023-04-03T11:12:00;2.23;;;1.40;;
2860;SDS011;1438;50.922;6.704;2023-04-03T11:14:28;1.20;;;1.10;;
2860;SDS011;1438;50.922;6.704;2023-04-03T11:22:42;1.97;;;1.00;;
2860;SDS011;1438;50.922;6.704;2023-04-03T11:27:43;1.77;;;1.13;;
2860;SDS011;1438;50.922;6.704;2023-04-03T11:30:25;1.60;;;1.00;;
2860;SDS011;1438;50.922;6.704;2023-04-03T11:35:26;3.40;;;1.53;;
2860;SDS011;1438;50.922;6.704;2023-04-03T11:37:53;1.90;;;1.30;;
2860;SDS011;1438;50.922;6.704;2023-04-03T11:40:21;2.57;;;1.10;;
2860;SDS011;1438;50.922;6.704;2023-04-03T11:42:49;1.10;;;1.00;;
2860;SDS011;1438;50.922;6.704;2023-04-03T11:45:16;2.40;;;0.90;;
2860;SDS011;1438;50.922;6.704;2023-04-03T11:47:52;2.20;;;1.10;;
2860;SDS011;1438;50.922;6.704;2023-04-03T11:53:01;4.60;;;1.00;;
2860;SDS011;1438;50.922;6.704;2023-04-03T12:03:01;2.77;;;1.20;;
2860;SDS011;1438;50.922;6.704;2023-04-03T12:05:28;1.57;;;0.97;;
2860;SDS011;1438;50.922;6.704;2023-04-03T12:10:40;3.30;;;1.30;;
2860;SDS011;1438;50.922;6.704;2023-04-03T12:13:12;1.90;;;0.97;;
2860;SDS011;1438;50.922;6.704;2023-04-03T12:18:30;1.00;;;0.90;;
2860;SDS011;1438;50.922;6.704;2023-04-03T12:20:57;2.90;;;1.17;;
2860;SDS011;1438;50.922;6.704;2023-04-03T12:25:59;2.20;;;1.07;;
2860;SDS011;1438;50.922;6.704;2023-04-03T12:28:26;2.07;;;1.23;;
2860;SDS011;1438;50.922;6.704;2023-04-03T12:30:53;2.13;;;1.00;;
2860;SDS011;1438;50.922;6.704;2023-04-03T12:36:04;3.30;;;1.20;;
2860;SDS011;1438;50.922;6.704;2023-04-03T12:46:19;4.60;;;1.20;;
2860;SDS011;1438;50.922;6.704;2023-04-03T12:51:45;2.83;;;1.23;;
2860;SDS011;1438;50.922;6.704;2023-04-03T12:56:43;3.90;;;1.20;;
2860;SDS011;1438;50.922;6.704;2023-04-03T12:59:20;2.20;;;1.00;;
2860;SDS011;1438;50.922;6.704;2023-04-03T13:01:53;3.40;;;1.13;;
2860;SDS011;1438;50.922;6.704;2023-04-03T13:04:19;1.53;;;0.90;;
2860;SDS011;1438;50.922;6.704;2023-04-03T13:06:45;1.93;;;1.07;;
2860;SDS011;1438;50.922;6.704;2023-04-03T13:09:44;1.43;;;1.00;;
2860;SDS011;1438;50.922;6.704;2023-04-03T13:12:11;5.23;;;0.97;;
2860;SDS011;1438;50.922;6.704;2023-04-03T13:14:37;1.40;;;0.90;;
2860;SDS011;1438;50.922;6.704;2023-04-03T13:17:15;1.97;;;1.10;;
2860;SDS011;1438;50.922;6.704;2023-04-03T13:19:42;1.63;;;0.80;;
2860;SDS011;1438;50.922;6.704;2023-04-03T13:22:11;2.60;;;0.80;;
2860;SDS011;1438;50.922;6.704;2023-04-03T13:24:44;4.33;;;1.60;;
2860;SDS011;1438;50.922;6.704;2023-04-03T13:27:11;3.70;;;0.83;;
2860;SDS011;1438;50.922;6.704;2023-04-03T13:29:38;2.23;;;1.10;;
2860;SDS011;1438;50.922;6.704;2023-04-03T13:32:05;3.03;;;1.10;;
2860;SDS011;1438;50.922;6.704;2023-04-03T13:34:41;1.77;;;1.00;;
2860;SDS011;1438;50.922;6.704;2023-04-03T13:37:11;2.20;;;1.20;;
2860;SDS011;1438;50.922;6.704;2023-04-03T13:39:44;1.27;;;1.00;;
2860;SDS011;1438;50.922;6.704;2023-04-03T13:42:21;2.90;;;0.97;;
2860;SDS011;1438;50.922;6.704;2023-04-03T13:44:48;1.13;;;0.87;;
2860;SDS011;1438;50.922;6.704;2023-04-03T13:47:17;1.50;;;0.93;;
2860;SDS011;1438;50.922;6.704;2023-04-03T13:49:45;2.00;;;1.00;;
2860;SDS011;1438;50.922;6.704;2023-04-03T13:52:26;2.27;;;0.90;;
2860;SDS011;1438;50.922;6.704;2023-04-03T13:54:57;3.07;;;1.37;;
2860;SDS011;1438;50.922;6.704;2023-04-03T13:57:24;1.50;;;0.90;;
2860;SDS011;1438;50.922;6.704;2023-04-03T13:59:50;3.70;;;1.70;;
2860;SDS011;1438;50.922;6.704;2023-04-03T14:04:48;1.37;;;1.00;;
2860;SDS011;1438;50.922;6.704;2023-04-03T14:07:16;1.67;;;1.07;;
2860;SDS011;1438;50.922;6.704;2023-04-03T14:09:44;1.37;;;0.80;;
2860;SDS011;1438;50.922;6.704;2023-04-03T14:12:24;1.50;;;1.00;;
2860;SDS011;1438;50.922;6.704;2023-04-03T14:14:51;1.10;;;1.00;;
2860;SDS011;1438;50.922;6.704;2023-04-03T14:17:19;1.50;;;1.03;;
2860;SDS011;1438;50.922;6.704;2023-04-03T14:19:48;1.20;;;0.90;;
2860;SDS011;1438;50.922;6.704;2023-04-03T14:24:41;2.43;;;1.00;;
2860;SDS011;1438;50.922;6.704;2023-04-03T14:27:42;3.57;;;1.20;;
2860;SDS011;1438;50.922;6.704;2023-04-03T14:30:01;1.93;;;1.20;;
2860;SDS011;1438;50.922;6.704;2023-04-03T14:32:28;2.23;;;1.10;;
2860;SDS011;1438;50.922;6.704;2023-04-03T14:34:55;2.50;;;1.20;;
2860;SDS011;1438;50.922;6.704;2023-04-03T14:37:23;1.47;;;1.00;;
2860;SDS011;1438;50.922;6.704;2023-04-03T14:39:51;3.27;;;1.47;;
2860;SDS011;1438;50.922;6.704;2023-04-03T14:42:22;2.30;;;1.33;;
2860;SDS011;1438;50.922;6.704;2023-04-03T14:44:48;2.57;;;1.43;;
2860;SDS011;1438;50.922;6.704;2023-04-03T14:47:16;1.13;;;1.03;;
2860;SDS011;1438;50.922;6.704;2023-04-03T14:49:44;1.70;;;1.17;;
2860;SDS011;1438;50.922;6.704;2023-04-03T14:52:16;1.87;;;1.07;;
2860;SDS011;1438;50.922;6.704;2023-04-03T14:54:43;4.10;;;1.00;;
2860;SDS011;1438;50.922;6.704;2023-04-03T14:57:09;1.40;;;0.87;;
2860;SDS011;1438;50.922;6.704;2023-04-03T14:59:37;2.30;;;1.03;;
2860;SDS011;1438;50.922;6.704;2023-04-03T15:02:09;3.33;;;1.47;;
2860;SDS011;1438;50.922;6.704;2023-04-03T15:04:36;3.23;;;1.40;;
2860;SDS011;1438;50.922;6.704;2023-04-03T15:07:02;1.57;;;1.10;;
2860;SDS011;1438;50.922;6.704;2023-04-03T15:09:28;1.63;;;1.20;;
2860;SDS011;1438;50.922;6.704;2023-04-03T15:11:54;2.80;;;1.23;;
2860;SDS011;1438;50.922;6.704;2023-04-03T15:14:21;1.57;;;1.03;;
2860;SDS011;1438;50.922;6.704;2023-04-03T15:16:48;1.83;;;1.00;;
2860;SDS011;1438;50.922;6.704;2023-04-03T15:19:14;1.20;;;1.00;;
2860;SDS011;1438;50.922;6.704;2023-04-03T15:21:40;2.40;;;1.33;;
2860;SDS011;1438;50.922;6.704;2023-04-03T15:24:06;3.33;;;1.63;;
2860;SDS011;1438;50.922;6.704;2023-04-03T15:26:32;3.37;;;1.30;;
2860;SDS011;1438;50.922;6.704;2023-04-03T15:28:59;2.80;;;1.00;;
2860;SDS011;1438;50.922;6.704;2023-04-03T15:31:25;5.20;;;1.53;;
2860;SDS011;1438;50.922;6.704;2023-04-03T15:33:51;5.40;;;1.30;;
2860;SDS011;1438;50.922;6.704;2023-04-03T15:36:17;3.83;;;1.30;;
2860;SDS011;1438;50.922;6.704;2023-04-03T15:38:43;3.17;;;1.83;;
2860;SDS011;1438;50.922;6.704;2023-04-03T15:41:09;2.40;;;1.50;;
2860;SDS011;1438;50.922;6.704;2023-04-03T15:43:35;3.53;;;1.43;;
2860;SDS011;1438;50.922;6.704;2023-04-03T15:46:01;2.73;;;0.90;;
2860;SDS011;1438;50.922;6.704;2023-04-03T15:48:27;2.07;;;1.17;;
2860;SDS011;1438;50.922;6.704;2023-04-03T15:50:53;3.40;;;1.50;;
2860;SDS011;1438;50.922;6.704;2023-04-03T15:53:19;2.13;;;1.33;;
2860;SDS011;1438;50.922;6.704;2023-04-03T15:55:46;2.10;;;1.27;;
2860;SDS011;1438;50.922;6.704;2023-04-03T15:58:12;2.60;;;1.03;;
2860;SDS011;1438;50.922;6.704;2023-04-03T16:00:38;1.30;;;1.20;;
2860;SDS011;1438;50.922;6.704;2023-04-03T16:03:05;3.57;;;1.50;;
2860;SDS011;1438;50.922;6.704;2023-04-03T16:05:31;6.27;;;2.53;;
2860;SDS011;1438;50.922;6.704;2023-04-03T16:07:59;3.17;;;1.43;;
2860;SDS011;1438;50.922;6.704;2023-04-03T16:10:25;5.43;;;2.10;;
2860;SDS011;1438;50.922;6.704;2023-04-03T16:12:51;1.60;;;1.13;;
2860;SDS011;1438;50.922;6.704;2023-04-03T16:15:17;2.57;;;1.30;;
2860;SDS011;1438;50.922;6.704;2023-04-03T16:17:44;3.83;;;1.37;;
2860;SDS011;1438;50.922;6.704;2023-04-03T16:20:10;4.13;;;1.60;;
2860;SDS011;1438;50.922;6.704;2023-04-03T16:22:37;3.30;;;1.40;;
2860;SDS011;1438;50.922;6.704;2023-04-03T16:25:04;3.60;;;1.10;;
2860;SDS011;1438;50.922;6.704;2023-04-03T16:27:30;4.80;;;1.40;;
2860;SDS011;1438;50.922;6.704;2023-04-03T16:29:56;2.20;;;1.10;;
2860;SDS011;1438;50.922;6.704;2023-04-03T16:32:23;2.13;;;1.10;;
2860;SDS011;1438;50.922;6.704;2023-04-03T16:34:50;3.33;;;1.30;;
2860;SDS011;1438;50.922;6.704;2023-04-03T16:37:16;2.33;;;1.20;;
2860;SDS011;1438;50.922;6.704;2023-04-03T16:39:42;1.97;;;0.90;;